Time;durP1;ratioP1;P1;durP2;ratioP2;P2;SDS_P1;SDS_P2;PMS_P1;PMS_P2;Temp;Humidity;BMP_temperature;BMP_pressure;BME280_temperature;BME280_humidity;BME280_pressure;Samples;Min_cycle;Max_cycle;Signal;HPM_P1;HPM_P2
2023/07/04 00:00:06;;;;;;;3.00;2.80;;;21.40;50.40;;;;;;20716;6720;305251;-77
2023/07/04 00:02:43;;;;;;;3.90;2.70;;;21.30;49.90;;;;;;20814;6752;118251;-77
2023/07/04 00:05:18;;;;;;;3.53;2.90;;;21.30;49.90;;;;;;20680;6735;305953;-77
2023/07/04 00:07:57;;;;;;;4.22;3.00;;;21.70;50.30;;;;;;20584;6734;311506;-78
2023/07/04 00:10:30;;;;;;;3.43;3.13;;;21.70;50.30;;;;;;20929;6718;118942;-78
2023/07/04 00:13:07;;;;;;;4.00;2.57;;;21.50;49.80;;;;;;20930;6743;116943;-77
2023/07/04 00:15:45;;;;;;;3.28;2.97;;;21.20;50.10;;;;;;20726;6720;305625;-77
2023/07/04 00:18:22;;;;;;;4.30;2.77;;;21.30;51.30;;;;;;20687;6724;117314;-78
2023/07/04 00:20:58;;;;;;;3.40;2.73;;;21.10;50.60;;;;;;20864;6735;117064;-78
2023/07/04 00:23:36;;;;;;;3.20;3.00;;;20.80;50.70;;;;;;20617;6749;279934;-78
2023/07/04 00:26:11;;;;;;;3.03;2.80;;;21.00;51.50;;;;;;20887;6729;122756;-79
2023/07/04 00:28:47;;;;;;;3.70;2.90;;;20.90;51.00;;;;;;20890;6732;118290;-80
2023/07/04 00:31:23;;;;;;;2.87;2.67;;;20.70;51.20;;;;;;20963;6711;117513;-78
2023/07/04 00:33:58;;;;;;;2.27;2.17;;;20.50;51.40;;;;;;20889;6726;117326;-78
2023/07/04 00:36:34;;;;;;;3.37;3.07;;;20.30;51.50;;;;;;20843;6723;121160;-79
2023/07/04 00:39:10;;;;;;;3.43;3.13;;;20.50;53.30;;;;;;20696;6729;301498;-78
2023/07/04 00:41:46;;;;;;;3.60;3.00;;;20.40;53.20;;;;;;20883;6730;117020;-78
2023/07/04 00:44:24;;;;;;;4.00;3.00;;;20.50;52.60;;;;;;20869;6747;117849;-77
2023/07/04 00:47:11;;;;;;;3.60;3.17;;;20.30;52.60;;;;;;20821;6725;117401;-78
2023/07/04 00:49:42;;;;;;;3.50;3.20;;;20.10;52.60;;;;;;20970;6711;116884;-77
2023/07/04 00:52:24;;;;;;;4.23;3.60;;;20.00;52.80;;;;;;20699;6728;304735;-78
2023/07/04 00:55:07;;;;;;;3.67;3.35;;;20.30;54.10;;;;;;20691;6728;275758;-78
2023/07/04 00:57:41;;;;;;;4.00;3.10;;;20.80;53.60;;;;;;20818;6719;123563;-77
2023/07/04 01:00:19;;;;;;;3.37;3.03;;;20.70;52.90;;;;;;20914;6728;117330;-77
2023/07/04 01:02:52;;;;;;;3.20;2.90;;;20.40;53.00;;;;;;20889;6728;119041;-79
2023/07/04 01:05:35;;;;;;;3.30;3.00;;;20.10;54.00;;;;;;20863;6749;117165;-82
2023/07/04 01:08:18;;;;;;;3.75;3.45;;;20.10;53.30;;;;;;20280;6847;342157;-79
2023/07/04 01:10:53;;;;;;;4.15;3.45;;;20.40;54.40;;;;;;20627;6746;310968;-79
2023/07/04 01:13:34;;;;;;;3.40;3.10;;;20.80;53.90;;;;;;20901;6730;117466;-78
2023/07/04 01:16:10;;;;;;;3.57;3.27;;;20.70;53.30;;;;;;20678;6724;280451;-77
2023/07/04 01:18:46;;;;;;;4.23;2.87;;;20.90;53.60;;;;;;20929;6715;123378;-77
2023/07/04 01:21:21;;;;;;;3.83;3.53;;;20.80;53.20;;;;;;20761;6703;333603;-77
2023/07/04 01:24:07;;;;;;;3.17;2.70;;;20.90;53.40;;;;;;20987;6703;116825;-77
2023/07/04 01:26:42;;;;;;;5.07;3.33;;;20.90;53.10;;;;;;20647;6718;277417;-77
2023/07/04 01:29:18;;;;;;;3.07;2.87;;;21.00;53.20;;;;;;20937;6719;117315;-77
2023/07/04 01:31:53;;;;;;;2.97;2.80;;;20.90;52.80;;;;;;20926;6724;117339;-77
2023/07/04 01:34:29;;;;;;;3.60;3.03;;;20.70;52.90;;;;;;20882;6728;119067;-77
2023/07/04 01:37:05;;;;;;;3.33;3.03;;;20.50;53.10;;;;;;20866;6715;118033;-77
2023/07/04 01:39:40;;;;;;;4.63;2.50;;;20.30;53.20;;;;;;20877;6713;117836;-78
2023/07/04 01:42:17;;;;;;;3.15;2.90;;;20.20;53.40;;;;;;20738;6714;275847;-78
2023/07/04 01:44:52;;;;;;;3.20;3.00;;;20.90;53.70;;;;;;20636;6735;276058;-77
2023/07/04 01:47:28;;;;;;;3.10;2.80;;;20.90;53.60;;;;;;20585;6714;277003;-77
2023/07/04 01:50:07;;;;;;;3.25;2.95;;;21.30;53.10;;;;;;20678;6733;280062;-77
2023/07/04 01:52:39;;;;;;;3.17;2.87;;;21.50;52.50;;;;;;20729;6710;280934;-77
2023/07/04 01:55:16;;;;;;;2.97;2.60;;;21.70;52.00;;;;;;20995;6713;116605;-77
2023/07/04 01:57:51;;;;;;;3.40;2.20;;;21.50;51.90;;;;;;20859;6714;117745;-77
2023/07/04 02:00:28;;;;;;;3.00;2.80;;;21.10;52.20;;;;;;20732;6713;305468;-77
2023/07/04 02:03:04;;;;;;;3.10;2.90;;;21.20;52.80;;;;;;20779;6704;288402;-76
2023/07/04 02:05:39;;;;;;;2.97;2.70;;;21.50;52.30;;;;;;20929;6713;120843;-77
2023/07/04 02:08:15;;;;;;;3.40;2.83;;;21.40;52.10;;;;;;20730;6716;117406;-77
2023/07/04 02:10:50;;;;;;;2.63;2.43;;;21.10;52.40;;;;;;20938;6714;116637;-77
2023/07/04 02:13:27;;;;;;;4.37;3.20;;;21.00;53.70;;;;;;20768;6703;277437;-76
2023/07/04 02:16:05;;;;;;;5.00;3.00;;;21.00;53.60;;;;;;20968;6706;116816;-77
2023/07/04 02:18:38;;;;;;;4.13;3.30;;;21.00;53.30;;;;;;20696;6721;308838;-77
2023/07/04 02:21:14;;;;;;;3.47;3.15;;;21.10;54.20;;;;;;20726;6721;275725;-77
2023/07/04 02:23:49;;;;;;;3.65;3.42;;;21.40;54.30;;;;;;20724;6721;305242;-77
2023/07/04 02:26:25;;;;;;;3.43;3.10;;;21.60;54.20;;;;;;20897;6721;116933;-77
2023/07/04 02:29:01;;;;;;;3.00;2.80;;;21.10;54.30;;;;;;20928;6721;116891;-77
2023/07/04 02:31:40;;;;;;;3.50;3.13;;;21.10;54.10;;;;;;20761;6707;310961;-77
2023/07/04 02:34:15;;;;;;;3.00;2.80;;;21.20;55.00;;;;;;20934;6721;117348;-77
2023/07/04 02:36:48;;;;;;;3.83;2.93;;;21.10;54.60;;;;;;20862;6714;118488;-78
2023/07/04 02:39:27;;;;;;;3.07;2.80;;;20.80;54.60;;;;;;21002;6699;116820;-77
2023/07/04 02:42:00;;;;;;;2.90;2.70;;;20.80;55.10;;;;;;20751;6711;310097;-77
2023/07/04 02:44:35;;;;;;;2.60;2.43;;;20.80;55.00;;;;;;20940;6711;117963;-77
2023/07/04 02:47:11;;;;;;;2.80;2.33;;;20.80;54.60;;;;;;20820;6725;117667;-77
2023/07/04 02:49:47;;;;;;;3.57;2.90;;;20.50;54.60;;;;;;21003;6696;118216;-77
2023/07/04 02:52:22;;;;;;;3.15;2.78;;;20.30;54.60;;;;;;20748;6711;334644;-77
2023/07/04 02:54:58;;;;;;;3.20;2.83;;;20.50;55.10;;;;;;20688;6725;278121;-77
2023/07/04 02:57:33;;;;;;;2.80;2.60;;;20.80;54.90;;;;;;20628;6711;311579;-77
2023/07/04 03:00:10;;;;;;;2.80;2.60;;;21.10;54.30;;;;;;20750;6715;305086;-77
2023/07/04 03:02:46;;;;;;;2.83;2.63;;;21.20;53.90;;;;;;20718;6707;313298;-77
2023/07/04 03:05:22;;;;;;;2.70;2.50;;;21.30;53.70;;;;;;20942;6713;117343;-78
2023/07/04 03:07:57;;;;;;;2.83;2.63;;;21.10;53.70;;;;;;20551;6725;307570;-78
2023/07/04 03:10:33;;;;;;;2.90;2.65;;;21.00;54.20;;;;;;20755;6706;311796;-77
2023/07/04 03:13:08;;;;;;;2.80;2.60;;;21.10;53.90;;;;;;20765;6708;278569;-77
2023/07/04 03:15:47;;;;;;;2.43;2.33;;;21.30;53.50;;;;;;20952;6720;116897;-77
2023/07/04 03:18:19;;;;;;;6.67;2.67;;;21.00;53.50;;;;;;20734;6725;121432;-77
2023/07/04 03:20:56;;;;;;;2.40;2.20;;;20.30;54.30;;;;;;20868;6737;119162;-77
2023/07/04 03:23:31;;;;;;;2.10;1.93;;;20.20;54.20;;;;;;20877;6738;116844;-77
2023/07/04 03:26:07;;;;;;;2.40;2.30;;;20.00;54.60;;;;;;20873;6734;118094;-77
2023/07/04 03:28:42;;;;;;;3.42;2.70;;;19.80;54.80;;;;;;20680;6713;305914;-77
2023/07/04 03:31:19;;;;;;;2.13;2.03;;;20.00;55.70;;;;;;20916;6731;118561;-77
2023/07/04 03:33:56;;;;;;;2.20;1.73;;;20.00;55.30;;;;;;20915;6716;117479;-77
2023/07/04 03:36:32;;;;;;;2.03;1.83;;;19.90;55.40;;;;;;20866;6722;118560;-77
2023/07/04 03:39:10;;;;;;;2.03;1.93;;;19.70;55.60;;;;;;20972;6702;119479;-77
2023/07/04 03:41:43;;;;;;;2.33;2.23;;;19.60;55.70;;;;;;20706;6723;276974;-80
2023/07/04 03:44:18;;;;;;;2.30;2.20;;;20.00;56.50;;;;;;20611;6746;281142;-77
2023/07/04 03:46:54;;;;;;;2.07;1.90;;;20.40;55.70;;;;;;20782;6740;118565;-77
2023/07/04 03:49:30;;;;;;;2.87;2.22;;;20.40;55.20;;;;;;20602;6754;277322;-77
2023/07/04 03:52:05;;;;;;;2.00;1.80;;;20.60;55.20;;;;;;20895;6738;116875;-79
2023/07/04 03:54:42;;;;;;;2.20;2.10;;;20.50;54.90;;;;;;20791;6754;118170;-77
2023/07/04 03:57:18;;;;;;;2.20;2.00;;;20.30;55.10;;;;;;20801;6733;117632;-77
2023/07/04 03:59:53;;;;;;;2.07;1.97;;;20.10;55.30;;;;;;20678;6743;306691;-77
2023/07/04 04:02:29;;;;;;;1.77;1.67;;;20.40;55.60;;;;;;20873;6757;118656;-78
2023/07/04 04:05:05;;;;;;;2.17;1.97;;;20.40;55.20;;;;;;20909;6725;117681;-77
2023/07/04 04:07:41;;;;;;;2.33;2.13;;;20.50;55.50;;;;;;20514;6729;308612;-77
2023/07/04 04:10:16;;;;;;;2.58;2.37;;;20.50;55.40;;;;;;20787;6700;275134;-77
2023/07/04 04:12:52;;;;;;;2.53;2.43;;;20.80;54.60;;;;;;20764;6697;296251;-80
2023/07/04 04:15:28;;;;;;;2.90;2.10;;;20.90;53.80;;;;;;21027;6698;117151;-80
2023/07/04 04:18:04;;;;;;;2.20;2.00;;;20.90;53.80;;;;;;20795;6710;117785;-81
2023/07/04 04:20:39;;;;;;;2.20;2.00;;;20.60;54.10;;;;;;20997;6709;117800;-80
2023/07/04 04:23:15;;;;;;;2.20;2.10;;;20.40;54.60;;;;;;20938;6722;116985;-78
2023/07/04 04:25:51;;;;;;;2.83;2.50;;;20.20;54.80;;;;;;20693;6723;305973;-79
2023/07/04 04:28:26;;;;;;;2.20;2.07;;;20.40;55.20;;;;;;20466;6796;312214;-81
2023/07/04 04:31:03;;;;;;;2.63;2.30;;;21.20;53.80;;;;;;20686;6739;305956;-79
2023/07/04 04:33:38;;;;;;;2.20;2.10;;;21.20;53.80;;;;;;20919;6723;116743;-79
2023/07/04 04:36:17;;;;;;;2.20;2.00;;;21.10;53.60;;;;;;20827;6735;117078;-78
2023/07/04 04:38:53;;;;;;;2.70;2.20;;;20.90;53.90;;;;;;20752;6728;304530;-80
2023/07/04 04:41:28;;;;;;;2.40;2.20;;;21.10;54.20;;;;;;20608;6730;296680;-81
2023/07/04 04:44:04;;;;;;;2.55;2.35;;;21.40;53.70;;;;;;20731;6713;306181;-81
2023/07/04 04:46:44;;;;;;;2.50;2.40;;;21.70;53.30;;;;;;20699;6711;285725;-83
2023/07/04 04:49:18;;;;;;;2.70;2.50;;;21.80;52.80;;;;;;20733;6715;307926;-84
2023/07/04 04:51:54;;;;;;;2.27;2.17;;;22.00;52.70;;;;;;21007;6702;116986;-83
2023/07/04 04:54:30;;;;;;;1.90;1.80;;;21.70;52.70;;;;;;20968;6703;117747;-82
2023/07/04 04:57:05;;;;;;;2.13;2.00;;;21.40;53.30;;;;;;20757;6748;117588;-80
2023/07/04 04:59:40;;;;;;;2.20;2.10;;;21.10;53.60;;;;;;20950;6717;116599;-84
2023/07/04 05:02:16;;;;;;;2.27;2.17;;;20.90;54.10;;;;;;20933;6719;121100;-84
2023/07/04 05:04:51;;;;;;;2.33;2.23;;;20.80;54.30;;;;;;20885;6728;117613;-84
2023/07/04 05:07:27;;;;;;;2.67;2.47;;;20.70;54.50;;;;;;20777;6728;118261;-84
2023/07/04 05:10:05;;;;;;;2.37;2.10;;;20.70;54.80;;;;;;20949;6713;116936;-83
2023/07/04 05:12:45;;;;;;;2.93;2.50;;;20.60;54.90;;;;;;20730;6712;305588;-83
2023/07/04 05:15:17;;;;;;;3.63;2.40;;;20.90;55.60;;;;;;21023;6690;118123;-81
2023/07/04 05:17:52;;;;;;;3.03;2.83;;;21.10;55.10;;;;;;20611;6709;305626;-80
2023/07/04 05:20:28;;;;;;;2.60;2.40;;;21.30;55.00;;;;;;20795;6691;341665;-81
2023/07/04 05:23:06;;;;;;;2.90;2.70;;;21.70;53.50;;;;;;20763;6706;304811;-80
2023/07/04 05:25:39;;;;;;;2.83;2.62;;;22.10;53.30;;;;;;20763;6707;335262;-80
2023/07/04 05:28:16;;;;;;;2.50;2.30;;;22.40;52.70;;;;;;20871;6689;116436;-78
2023/07/04 05:31:02;;;;;;;2.63;2.50;;;22.30;52.80;;;;;;20787;6693;303992;-78
2023/07/04 05:33:38;;;;;;;2.50;2.30;;;22.40;52.80;;;;;;21017;6693;116970;-83
2023/07/04 05:36:16;;;;;;;2.37;2.27;;;22.30;52.80;;;;;;20972;6705;120021;-78
2023/07/04 05:38:54;;;;;;;2.67;2.40;;;22.20;53.00;;;;;;21011;6704;116788;-82
2023/07/04 05:41:30;;;;;;;2.70;2.50;;;22.00;53.20;;;;;;20777;6704;310672;-77
2023/07/04 05:44:06;;;;;;;2.37;2.10;;;22.40;52.50;;;;;;20930;6736;122977;-77
2023/07/04 05:46:42;;;;;;;2.70;2.50;;;22.40;52.50;;;;;;20694;6703;278268;-77
2023/07/04 05:49:17;;;;;;;2.80;2.60;;;22.70;52.30;;;;;;20874;6744;118072;-77
2023/07/04 05:51:53;;;;;;;2.90;2.70;;;22.70;52.10;;;;;;20676;6733;308071;-77
2023/07/04 05:54:32;;;;;;;2.92;2.72;;;22.90;52.00;;;;;;20682;6736;310805;-78
2023/07/04 05:57:08;;;;;;;3.63;2.87;;;23.20;51.20;;;;;;20600;6732;278008;-77
2023/07/04 05:59:41;;;;;;;2.83;2.63;;;23.40;50.80;;;;;;20637;6735;311181;-80
2023/07/04 06:02:17;;;;;;;2.43;2.30;;;23.60;50.60;;;;;;20610;6754;311099;-77
2023/07/04 06:04:53;;;;;;;3.17;2.57;;;23.60;50.40;;;;;;21030;6682;116709;-79
2023/07/04 06:07:29;;;;;;;2.65;2.45;;;23.60;50.40;;;;;;20610;6717;332226;-80
2023/07/04 06:10:05;;;;;;;2.53;2.33;;;23.60;50.20;;;;;;20979;6707;116650;-78
2023/07/04 06:12:41;;;;;;;3.13;2.23;;;23.20;50.80;;;;;;20990;6690;123603;-77
2023/07/04 06:15:16;;;;;;;3.20;2.20;;;23.10;50.70;;;;;;21025;6690;116970;-76
2023/07/04 06:17:52;;;;;;;2.67;2.47;;;23.00;51.20;;;;;;20858;6693;117180;-75
2023/07/04 06:20:28;;;;;;;3.60;2.20;;;22.80;51.40;;;;;;21042;6680;116739;-76
2023/07/04 06:23:04;;;;;;;4.50;2.70;;;22.90;52.10;;;;;;20832;6680;279056;-76
2023/07/04 06:25:39;;;;;;;2.60;2.40;;;23.00;51.60;;;;;;20833;6680;304325;-76
2023/07/04 06:28:15;;;;;;;2.40;2.30;;;23.30;50.70;;;;;;20836;6680;117285;-76
2023/07/04 06:30:51;;;;;;;2.70;2.50;;;23.30;50.60;;;;;;20732;6708;276738;-76
2023/07/04 06:33:26;;;;;;;2.80;2.60;;;23.40;50.70;;;;;;20746;6711;336326;-76
2023/07/04 06:36:02;;;;;;;3.17;2.70;;;23.90;50.20;;;;;;20734;6713;300342;-76
2023/07/04 06:38:38;;;;;;;3.77;2.50;;;24.50;49.10;;;;;;20798;6734;120106;-76
2023/07/04 06:41:14;;;;;;;3.27;3.00;;;24.50;49.60;;;;;;20699;6721;305353;-76
2023/07/04 06:43:51;;;;;;;3.10;2.10;;;24.80;48.10;;;;;;20888;6732;117052;-76
2023/07/04 06:46:26;;;;;;;2.80;2.60;;;25.10;48.80;;;;;;20636;6729;306284;-76
2023/07/04 06:49:02;;;;;;;4.50;2.50;;;25.70;47.50;;;;;;20609;6747;312175;-77
2023/07/04 06:51:38;;;;;;;3.03;2.30;;;26.50;45.60;;;;;;20940;6713;116779;-76
2023/07/04 06:54:18;;;;;;;2.30;2.10;;;26.40;45.50;;;;;;20846;6747;116912;-75
2023/07/04 06:56:51;;;;;;;2.83;2.60;;;26.30;45.70;;;;;;20621;6724;278964;-76
2023/07/04 06:59:26;;;;;;;2.30;2.20;;;26.30;44.70;;;;;;20894;6733;116813;-76
2023/07/04 07:02:03;;;;;;;2.70;2.20;;;26.20;44.90;;;;;;20644;6746;279964;-81
2023/07/04 07:04:37;;;;;;;2.33;2.23;;;26.30;44.70;;;;;;20867;6736;119551;-80
2023/07/04 07:07:13;;;;;;;2.07;1.97;;;26.00;44.80;;;;;;20793;6735;116710;-76
2023/07/04 07:09:48;;;;;;;3.07;2.40;;;25.80;45.50;;;;;;20691;6733;277442;-81
2023/07/04 07:12:25;;;;;;;3.67;2.40;;;26.10;44.80;;;;;;20658;6741;299547;-83
2023/07/04 07:15:00;;;;;;;2.50;2.30;;;26.10;45.10;;;;;;20945;6716;117090;-79
2023/07/04 07:17:36;;;;;;;2.30;2.20;;;26.10;45.10;;;;;;21022;6594;73043;-74
2023/07/04 07:20:11;;;;;;;2.60;2.40;;;26.00;45.30;;;;;;20983;6707;124418;-76
2023/07/04 07:22:47;;;;;;;2.30;2.10;;;25.90;45.60;;;;;;20992;6696;117214;-75
2023/07/04 07:25:23;;;;;;;2.70;2.50;;;25.80;45.60;;;;;;20741;6711;304652;-75
2023/07/04 07:27:58;;;;;;;2.47;2.27;;;26.10;44.40;;;;;;20632;6710;307505;-76
2023/07/04 07:30:34;;;;;;;4.30;2.60;;;26.40;43.00;;;;;;20741;6707;290805;-75
2023/07/04 07:33:09;;;;;;;2.75;2.55;;;26.60;43.10;;;;;;20766;6707;307577;-76
2023/07/04 07:35:45;;;;;;;2.47;2.30;;;26.70;42.90;;;;;;21048;6681;117210;-75
2023/07/04 07:38:21;;;;;;;2.33;2.23;;;26.40;43.20;;;;;;20919;6681;117212;-77
2023/07/04 07:40:56;;;;;;;2.03;1.93;;;26.10;43.70;;;;;;20931;6692;121358;-77
2023/07/04 07:43:32;;;;;;;2.87;2.30;;;25.80;44.30;;;;;;20987;6693;120490;-75
2023/07/04 07:46:07;;;;;;;2.80;2.20;;;25.80;44.90;;;;;;20759;6703;304560;-78
2023/07/04 07:48:43;;;;;;;3.10;2.50;;;26.00;44.80;;;;;;20607;6698;339279;-75
2023/07/04 07:51:19;;;;;;;2.83;2.62;;;26.50;42.50;;;;;;20751;6710;334071;-77
2023/07/04 07:53:54;;;;;;;2.30;2.10;;;26.90;41.70;;;;;;20942;6707;116831;-75
2023/07/04 07:56:31;;;;;;;2.70;2.50;;;26.80;41.60;;;;;;20769;6692;303901;-75
2023/07/04 07:59:07;;;;;;;2.70;2.47;;;26.90;40.80;;;;;;20722;6704;338582;-78
2023/07/04 08:01:45;;;;;;;2.60;2.13;;;27.10;41.00;;;;;;20977;6707;116723;-75
2023/07/04 08:04:18;;;;;;;3.40;2.33;;;26.90;41.10;;;;;;20934;6724;116838;-77
2023/07/04 08:06:53;;;;;;;2.80;2.60;;;26.60;41.60;;;;;;20729;6704;306081;-79
2023/07/04 08:09:32;;;;;;;2.60;2.40;;;26.70;41.10;;;;;;20996;6702;119571;-79
2023/07/04 08:12:05;;;;;;;3.43;2.30;;;26.70;41.60;;;;;;20858;6748;117125;-79
2023/07/04 08:14:40;;;;;;;2.90;2.70;;;26.60;42.50;;;;;;20714;6721;303500;-80
2023/07/04 08:17:16;;;;;;;4.83;2.40;;;26.90;40.20;;;;;;20905;6721;117793;-77
2023/07/04 08:19:51;;;;;;;3.67;2.70;;;26.90;41.10;;;;;;20784;6703;278246;-75
2023/07/04 08:22:27;;;;;;;3.43;2.73;;;27.20;40.50;;;;;;21030;6691;116959;-75
2023/07/04 08:25:05;;;;;;;3.53;2.50;;;27.50;38.70;;;;;;20785;6691;274807;-80
2023/07/04 08:27:39;;;;;;;4.17;2.80;;;27.50;38.70;;;;;;20722;6692;306697;-77
2023/07/04 08:30:15;;;;;;;3.78;2.87;;;28.20;38.40;;;;;;20793;6695;337394;-79
2023/07/04 08:32:53;;;;;;;5.57;2.50;;;28.20;38.40;;;;;;20998;6692;123650;-77
2023/07/04 08:35:28;;;;;;;2.67;2.47;;;28.30;38.50;;;;;;20923;6720;116868;-79
2023/07/04 08:38:04;;;;;;;3.77;2.57;;;28.30;37.00;;;;;;20586;6707;282139;-79
2023/07/04 08:40:41;;;;;;;2.53;2.30;;;28.20;36.90;;;;;;20958;6707;116926;-77
2023/07/04 08:43:30;;;;;;;3.80;2.80;;;28.20;37.50;;;;;;20915;6722;117686;-76
2023/07/04 08:46:07;;;;;;;3.15;2.80;;;28.20;36.80;;;;;;20710;6722;305227;-78
2023/07/04 08:48:42;;;;;;;3.63;2.67;;;28.20;36.70;;;;;;20655;6727;133004;-75
2023/07/04 08:51:18;;;;;;;4.17;2.50;;;28.20;37.00;;;;;;20918;6724;116970;-79
2023/07/04 08:53:53;;;;;;;3.87;2.83;;;28.10;37.20;;;;;;20737;6714;305206;-80
2023/07/04 08:56:35;;;;;;;4.50;2.60;;;28.30;36.70;;;;;;20940;6717;116761;-75
2023/07/04 08:59:42;;;;;;;4.28;2.80;;;28.40;36.90;;;;;;20699;6726;308788;-80
2023/07/04 09:02:40;;;;;;;4.53;2.60;;;28.60;35.90;;;;;;19834;6824;119287;-76
2023/07/04 09:05:23;;;;;;;7.97;2.80;;;28.70;36.40;;;;;;20943;6718;116815;-77
2023/07/04 09:08:21;;;;;;;3.80;2.43;;;28.60;36.80;;;;;;20866;6709;117176;-74
2023/07/04 09:10:58;;;;;;;3.37;2.60;;;28.50;37.00;;;;;;20972;6709;119475;-81
2023/07/04 09:13:36;;;;;;;3.97;3.40;;;28.30;37.20;;;;;;21021;6694;118622;-77
2023/07/04 09:16:12;;;;;;;3.20;2.90;;;28.30;36.90;;;;;;20921;6722;116838;-75
2023/07/04 09:19:01;;;;;;;4.33;3.10;;;28.20;36.30;;;;;;20501;6720;278123;-76
2023/07/04 09:21:39;;;;;;;4.50;3.12;;;28.70;34.60;;;;;;20693;6731;275674;-79
2023/07/04 09:24:15;;;;;;;5.90;3.30;;;29.00;34.20;;;;;;20705;6733;304817;-75
2023/07/04 09:26:55;;;;;;;6.00;3.62;;;29.00;34.30;;;;;;20624;6732;338010;-78
2023/07/04 09:29:36;;;;;;;3.67;3.20;;;29.20;34.00;;;;;;20731;6709;305850;-78
2023/07/04 09:32:06;;;;;;;3.33;3.03;;;29.40;34.20;;;;;;20928;6720;116735;-75
2023/07/04 09:34:46;;;;;;;4.83;3.20;;;29.30;35.80;;;;;;20745;6706;304285;-75
2023/07/04 09:37:22;;;;;;;5.17;3.33;;;29.70;34.10;;;;;;20576;6722;311287;-76
2023/07/04 09:39:58;;;;;;;6.87;3.67;;;29.70;34.70;;;;;;20617;6743;279518;-76
2023/07/04 09:42:37;;;;;;;4.97;3.63;;;30.10;32.80;;;;;;20715;6729;310487;-75
2023/07/04 09:45:12;;;;;;;4.57;3.50;;;30.20;32.00;;;;;;20728;6717;334287;-81
2023/07/04 09:47:47;;;;;;;3.70;3.00;;;30.40;32.90;;;;;;20765;6744;123118;-75
2023/07/04 09:50:26;;;;;;;4.23;3.40;;;30.20;32.80;;;;;;20982;6705;120543;-75
2023/07/04 09:53:02;;;;;;;4.03;3.50;;;30.00;33.40;;;;;;20705;6717;312181;-77
2023/07/04 09:55:40;;;;;;;3.50;3.07;;;30.10;32.30;;;;;;20862;6732;117058;-75
2023/07/04 09:58:19;;;;;;;4.90;3.60;;;30.10;32.90;;;;;;20801;6719;118930;-75
2023/07/04 10:01:11;;;;;;;5.73;3.50;;;30.10;33.50;;;;;;20644;6731;276542;-75
2023/07/04 10:03:46;;;;;;;6.43;3.50;;;30.50;32.50;;;;;;20858;6744;118169;-76
2023/07/04 10:06:29;;;;;;;4.17;3.67;;;30.80;32.10;;;;;;20946;6714;116813;-76
2023/07/04 10:09:17;;;;;;;3.50;3.20;;;30.70;31.70;;;;;;20780;6744;118719;-75
2023/07/04 10:11:53;;;;;;;4.90;3.13;;;30.50;31.80;;;;;;20863;6727;117037;-75
2023/07/04 10:14:32;;;;;;;4.23;3.30;;;30.30;32.20;;;;;;20811;6799;66686;-75
2023/07/04 10:17:12;;;;;;;5.12;3.40;;;30.40;32.80;;;;;;20608;6728;310227;-81
2023/07/04 10:19:52;;;;;;;6.63;3.80;;;31.20;30.10;;;;;;20711;6699;298538;-74
2023/07/04 10:22:31;;;;;;;4.47;3.30;;;31.20;30.00;;;;;;20922;6714;117949;-73
2023/07/04 10:25:11;;;;;;;3.23;3.03;;;31.10;30.70;;;;;;20911;6717;117097;-81
2023/07/04 10:27:49;;;;;;;4.10;3.67;;;31.10;30.70;;;;;;20571;6732;278815;-75
2023/07/04 10:30:25;;;;;;;5.03;3.73;;;31.30;30.70;;;;;;20549;6749;305802;-76
2023/07/04 10:33:00;;;;;;;4.00;3.60;;;31.70;29.20;;;;;;20645;6718;276906;-80
2023/07/04 10:35:36;;;;;;;5.77;3.40;;;31.90;29.70;;;;;;20920;6707;116775;-78
2023/07/04 10:38:32;;;;;;;4.57;3.30;;;31.90;29.30;;;;;;20726;6718;117670;-75
2023/07/04 10:41:08;;;;;;;3.70;3.40;;;31.80;29.00;;;;;;20704;6703;305846;-74
2023/07/04 10:43:46;;;;;;;3.47;3.20;;;31.80;29.00;;;;;;20814;6741;119124;-82
2023/07/04 10:46:20;;;;;;;3.50;3.20;;;31.70;29.10;;;;;;20653;6736;307198;-76
2023/07/04 10:48:56;;;;;;;3.75;3.35;;;31.90;29.40;;;;;;20424;6800;308490;-75
2023/07/04 10:51:32;;;;;;;3.75;3.30;;;32.20;28.70;;;;;;20689;6722;307574;-75
2023/07/04 10:54:07;;;;;;;4.50;3.20;;;32.50;27.80;;;;;;20757;6703;321216;-74
2023/07/04 10:56:43;;;;;;;4.97;3.10;;;32.70;27.70;;;;;;20888;6718;117262;-75
2023/07/04 10:59:18;;;;;;;4.63;3.27;;;32.40;28.00;;;;;;20747;6703;275090;-76
2023/07/04 11:02:04;;;;;;;3.30;3.00;;;32.30;28.20;;;;;;20729;6709;305379;-78
2023/07/04 11:04:43;;;;;;;4.53;3.53;;;32.30;28.20;;;;;;20419;6767;335910;-80
2023/07/04 11:07:16;;;;;;;3.92;3.62;;;32.30;28.30;;;;;;20629;6726;338168;-75
2023/07/04 11:09:51;;;;;;;5.53;3.30;;;32.30;28.50;;;;;;20942;6706;117981;-79
2023/07/04 11:12:28;;;;;;;3.10;2.90;;;31.70;29.50;;;;;;21000;6692;116722;-76
2023/07/04 11:15:06;;;;;;;3.47;3.20;;;31.70;29.50;;;;;;20990;6691;118223;-74
2023/07/04 11:17:39;;;;;;;3.50;3.20;;;31.50;29.70;;;;;;20697;6692;294558;-74
2023/07/04 11:20:15;;;;;;;3.47;3.10;;;31.40;29.10;;;;;;20719;6717;333608;-77
2023/07/04 11:22:53;;;;;;;5.25;3.50;;;31.40;28.90;;;;;;20756;6697;311351;-75
2023/07/04 11:25:36;;;;;;;4.83;3.10;;;31.30;29.20;;;;;;20988;6697;116669;-75
2023/07/04 11:28:16;;;;;;;4.07;3.63;;;30.90;29.50;;;;;;20616;6753;307815;-76
2023/07/04 11:30:52;;;;;;;4.37;3.30;;;30.50;29.60;;;;;;20724;6709;304922;-74
2023/07/04 11:33:38;;;;;;;3.30;3.10;;;30.50;29.60;;;;;;20696;6777;275680;-76
2023/07/04 11:36:17;;;;;;;3.63;3.30;;;30.50;29.50;;;;;;20780;6691;305434;-78
2023/07/04 11:38:59;;;;;;;4.07;3.22;;;30.60;29.70;;;;;;20555;6706;307512;-76
2023/07/04 11:41:38;;;;;;;3.55;3.10;;;30.50;29.20;;;;;;20777;6691;295150;-77
2023/07/04 11:44:21;;;;;;;2.97;2.77;;;30.20;30.00;;;;;;21050;6677;116492;-78
2023/07/04 11:47:03;;;;;;;3.53;3.23;;;30.20;30.00;;;;;;20675;6703;277412;-77
2023/07/04 11:49:41;;;;;;;4.00;3.00;;;30.30;31.10;;;;;;20789;6688;332617;-76
2023/07/04 11:52:27;;;;;;;3.30;2.80;;;31.10;29.90;;;;;;20691;6710;278085;-77
2023/07/04 11:55:00;;;;;;;3.37;3.08;;;31.10;29.70;;;;;;20754;6696;305073;-76
2023/07/04 11:58:06;;;;;;;3.60;3.30;;;31.60;29.40;;;;;;20909;6699;117104;-80
2023/07/04 12:00:43;;;;;;;4.83;3.10;;;31.60;29.40;;;;;;20805;6685;307675;-78
2023/07/04 12:03:17;;;;;;;4.00;3.20;;;31.60;29.60;;;;;;20978;6707;120546;-78
2023/07/04 12:05:55;;;;;;;3.07;2.80;;;31.50;29.60;;;;;;20757;6703;304802;-79
2023/07/04 12:08:32;;;;;;;3.03;2.70;;;31.50;29.10;;;;;;20814;6706;117730;-77
2023/07/04 12:11:07;;;;;;;3.77;3.13;;;31.40;29.10;;;;;;20706;6718;305460;-79
2023/07/04 12:13:55;;;;;;;;;;;;;;;;;;;;;
2023/07/04 12:16:26;;;;;;;3.08;2.80;;;31.60;28.10;;;;;;20712;6759;303594;-79
2023/07/04 12:19:08;;;;;;;2.87;2.67;;;31.60;28.00;;;;;;20728;6773;120108;-81
2023/07/04 12:21:48;;;;;;;3.40;3.10;;;31.20;28.50;;;;;;20768;6692;274828;-76
2023/07/04 12:24:25;;;;;;;2.50;2.30;;;31.10;28.50;;;;;;20863;6725;117570;-76
2023/07/04 12:27:00;;;;;;;2.70;2.50;;;31.10;28.80;;;;;;20900;6703;118402;-79
2023/07/04 12:29:42;;;;;;;3.00;2.70;;;30.90;29.10;;;;;;20747;6713;280115;-76
2023/07/04 12:32:20;;;;;;;2.87;2.60;;;31.10;28.80;;;;;;20929;6706;116824;-75
2023/07/04 12:34:54;;;;;;;2.93;2.73;;;31.10;28.80;;;;;;20845;6724;120031;-75
2023/07/04 12:37:36;;;;;;;3.03;2.73;;;31.00;29.20;;;;;;20628;6718;277478;-75
2023/07/04 12:40:07;;;;;;;2.73;2.43;;;31.10;28.60;;;;;;20607;6735;305167;-78
2023/07/04 12:42:43;;;;;;;2.93;2.73;;;31.30;28.70;;;;;;20867;6721;117285;-75
2023/07/04 12:45:22;;;;;;;2.83;2.63;;;31.30;28.80;;;;;;20828;6739;120897;-76
2023/07/04 12:48:00;;;;;;;2.62;2.42;;;30.90;29.00;;;;;;20495;6740;311684;-76
2023/07/04 12:50:39;;;;;;;3.17;2.65;;;30.80;29.30;;;;;;20580;6736;336362;-75
2023/07/04 12:53:15;;;;;;;3.50;2.87;;;31.00;28.90;;;;;;20706;6716;276061;-77
2023/07/04 12:55:50;;;;;;;3.17;2.83;;;31.30;28.70;;;;;;20874;6732;120909;-76
2023/07/04 12:58:26;;;;;;;3.03;2.80;;;31.10;29.00;;;;;;20674;6744;118982;-77
2023/07/04 13:01:02;;;;;;;3.50;2.60;;;30.80;29.20;;;;;;20895;6714;120645;-76
2023/07/04 13:03:37;;;;;;;3.20;2.83;;;30.70;29.80;;;;;;20824;6742;123272;-76
2023/07/04 13:06:13;;;;;;;3.10;2.90;;;30.60;29.80;;;;;;20591;6744;305510;-76
2023/07/04 13:08:53;;;;;;;3.00;2.80;;;31.10;28.40;;;;;;20431;6739;279839;-75
2023/07/04 13:11:28;;;;;;;3.00;2.80;;;31.10;28.40;;;;;;20598;6744;314394;-76
2023/07/04 13:14:08;;;;;;;2.87;2.40;;;31.30;28.40;;;;;;20691;6720;305936;-75
2023/07/04 13:16:43;;;;;;;2.60;2.30;;;31.40;28.90;;;;;;20853;6721;118341;-75
2023/07/04 13:19:21;;;;;;;4.57;2.47;;;31.30;28.90;;;;;;20897;6725;117970;-78
2023/07/04 13:21:56;;;;;;;3.07;2.37;;;31.00;29.10;;;;;;20912;6707;116685;-77
2023/07/04 13:24:36;;;;;;;3.13;2.40;;;31.00;28.60;;;;;;20608;6763;300732;-78
2023/07/04 13:27:16;;;;;;;2.60;2.20;;;31.10;29.00;;;;;;20848;6709;117677;-76